Time;durP1;ratioP1;P1;durP2;ratioP2;P2;SDS_P1;SDS_P2;PMS_P1;PMS_P2;Temp;Humidity;BMP_temperature;BMP_pressure;BME280_temperature;BME280_humidity;BME280_pressure;Samples;Min_cycle;Max_cycle;Signal;HPM_P1;HPM_P2
2023/06/12 00:01:17;;;;;;;5.63;4.90;;;16.10;99.90;;;;;;5015011;28;20034;-79
2023/06/12 00:03:43;;;;;;;5.93;5.07;;;16.00;99.90;;;;;;5007519;28;20473;-79
2023/06/12 00:06:10;;;;;;;6.20;4.90;;;16.00;99.90;;;;;;5016491;28;20026;-79
2023/06/12 00:08:41;;;;;;;5.68;5.05;;;15.80;99.90;;;;;;5013565;28;20470;-85
2023/06/12 00:11:09;;;;;;;5.57;5.00;;;15.80;99.90;;;;;;5015545;28;20068;-82
2023/06/12 00:13:41;;;;;;;6.60;4.65;;;15.80;99.90;;;;;;5006624;28;20029;-78
2023/06/12 00:16:07;;;;;;;5.75;4.90;;;15.80;99.90;;;;;;5017173;28;20038;-79
2023/06/12 00:18:33;;;;;;;5.22;4.72;;;15.80;99.90;;;;;;5015436;28;20042;-80
2023/06/12 00:20:59;;;;;;;5.60;4.90;;;15.70;99.90;;;;;;5010490;28;20031;-78
2023/06/12 00:23:25;;;;;;;5.80;4.60;;;15.80;99.90;;;;;;5015244;28;20046;-78
2023/06/12 00:25:50;;;;;;;5.68;5.18;;;15.80;99.90;;;;;;5003090;28;20054;-79
2023/06/12 00:28:16;;;;;;;5.63;4.78;;;15.90;99.90;;;;;;5010388;28;20113;-78
2023/06/12 00:30:41;;;;;;;5.43;4.90;;;16.00;99.90;;;;;;5013410;28;20041;-78
2023/06/12 00:33:07;;;;;;;6.07;4.65;;;16.00;99.90;;;;;;5012084;28;20044;-78
2023/06/12 00:35:33;;;;;;;5.80;5.18;;;15.90;99.90;;;;;;5017122;28;20116;-78
2023/06/12 00:37:59;;;;;;;5.80;5.18;;;15.90;99.90;;;;;;5015689;28;20109;-79
2023/06/12 00:40:25;;;;;;;5.53;4.80;;;15.90;99.90;;;;;;5011677;28;20042;-79
2023/06/12 00:42:51;;;;;;;5.53;4.93;;;15.90;99.90;;;;;;5016187;28;20064;-79
2023/06/12 00:45:21;;;;;;;7.03;5.18;;;15.90;99.90;;;;;;5016039;28;20043;-79
2023/06/12 00:47:50;;;;;;;5.80;5.20;;;15.80;99.90;;;;;;5010782;28;20045;-79
2023/06/12 00:50:17;;;;;;;6.00;4.47;;;15.90;99.90;;;;;;5009905;28;20056;-80
2023/06/12 00:52:46;;;;;;;5.97;5.37;;;15.80;99.90;;;;;;5015882;28;20398;-79
2023/06/12 00:55:14;;;;;;;6.10;4.90;;;15.80;99.90;;;;;;5016150;28;20089;-79
2023/06/12 00:57:41;;;;;;;5.32;4.82;;;15.80;99.90;;;;;;5011348;28;20037;-78
2023/06/12 01:00:09;;;;;;;5.25;4.80;;;15.80;99.90;;;;;;5011083;28;20034;-79
2023/06/12 01:02:39;;;;;;;5.10;4.60;;;15.80;99.90;;;;;;5009116;28;20041;-78
2023/06/12 01:05:07;;;;;;;6.50;5.75;;;15.70;99.90;;;;;;5007933;28;20098;-78
2023/06/12 01:07:44;;;;;;;;;;;15.70;99.90;;;;;;4995668;28;20810;-78
2023/06/12 01:10:32;;;;;;;5.57;4.90;;;15.70;99.90;;;;;;5015827;28;20465;-79
2023/06/12 01:12:59;;;;;;;7.43;4.65;;;15.70;99.90;;;;;;5016245;28;20048;-78
2023/06/12 01:15:25;;;;;;;6.80;5.40;;;15.70;99.90;;;;;;5009287;28;20043;-80
2023/06/12 01:17:51;;;;;;;8.00;5.55;;;15.50;99.90;;;;;;5013796;28;20046;-79
2023/06/12 01:20:17;;;;;;;8.00;5.47;;;15.40;99.90;;;;;;5010288;28;20044;-78
2023/06/12 01:23:21;;;;;;;6.15;5.55;;;15.20;99.90;;;;;;5012793;28;20034;-79
2023/06/12 01:26:07;;;;;;;6.78;5.63;;;15.20;99.90;;;;;;5013057;28;20021;-78
2023/06/12 01:28:37;;;;;;;6.38;5.47;;;15.10;99.90;;;;;;5016639;28;20025;-78
2023/06/12 01:31:25;;;;;;;6.43;5.65;;;15.00;99.90;;;;;;5017516;28;20026;-79
2023/06/12 01:34:02;;;;;;;6.55;5.10;;;15.00;99.90;;;;;;5015018;28;20132;-77
2023/06/12 01:36:33;;;;;;;6.95;6.25;;;14.90;99.90;;;;;;5012956;28;20038;-79
2023/06/12 01:39:00;;;;;;;9.50;5.85;;;14.90;99.90;;;;;;4988375;28;20038;-78
2023/06/12 01:41:29;;;;;;;7.03;5.78;;;14.80;99.90;;;;;;5003809;28;20034;-78
2023/06/12 01:43:55;;;;;;;6.00;5.40;;;14.70;99.90;;;;;;5015182;28;20025;-78
2023/06/12 01:46:21;;;;;;;6.10;5.43;;;14.80;99.90;;;;;;5019059;28;20014;-79
2023/06/12 01:48:46;;;;;;;6.40;5.80;;;14.80;99.90;;;;;;5013770;28;20069;-78
2023/06/12 01:51:12;;;;;;;6.97;6.15;;;14.80;99.90;;;;;;5015399;28;20044;-79
2023/06/12 01:53:38;;;;;;;8.50;5.75;;;14.80;99.90;;;;;;5018707;28;20100;-78
2023/06/12 01:56:03;;;;;;;6.45;5.35;;;14.80;99.90;;;;;;5020177;28;20036;-78
2023/06/12 01:58:29;;;;;;;6.65;5.85;;;14.90;99.90;;;;;;5020436;28;20058;-80
2023/06/12 02:00:55;;;;;;;8.25;6.80;;;14.80;99.90;;;;;;5018120;28;20413;-78
2023/06/12 02:03:22;;;;;;;6.35;5.43;;;14.90;99.90;;;;;;4999385;28;20075;-79
2023/06/12 02:05:51;;;;;;;6.93;5.72;;;14.90;99.90;;;;;;5009959;28;20026;-78
2023/06/12 02:08:17;;;;;;;6.85;5.65;;;14.80;99.90;;;;;;5021136;28;20042;-78
2023/06/12 02:10:42;;;;;;;6.80;6.10;;;14.70;99.90;;;;;;5015633;28;20037;-78
2023/06/12 02:13:08;;;;;;;7.10;6.18;;;14.70;99.90;;;;;;5002469;28;20097;-79
2023/06/12 02:15:34;;;;;;;7.00;5.80;;;14.60;99.90;;;;;;5015760;28;20038;-79
2023/06/12 02:18:01;;;;;;;7.40;6.05;;;14.60;99.90;;;;;;5017985;28;20034;-79
2023/06/12 02:20:26;;;;;;;7.10;5.68;;;14.50;99.90;;;;;;5009355;28;20352;-78
2023/06/12 02:22:52;;;;;;;6.47;5.88;;;14.50;99.90;;;;;;5017661;28;20038;-78
2023/06/12 02:25:18;;;;;;;7.28;6.18;;;14.50;99.90;;;;;;5015744;28;20127;-78
2023/06/12 02:27:43;;;;;;;11.15;6.10;;;14.50;99.90;;;;;;5017011;28;20125;-77
2023/06/12 02:30:10;;;;;;;7.13;5.97;;;14.50;99.90;;;;;;5015150;28;20045;-78
2023/06/12 02:32:35;;;;;;;7.60;6.50;;;14.40;99.90;;;;;;5019571;28;20061;-78
2023/06/12 02:35:02;;;;;;;7.22;6.47;;;14.50;99.90;;;;;;5014192;28;20022;-77
2023/06/12 02:37:29;;;;;;;10.35;6.30;;;14.60;99.90;;;;;;5020288;28;20030;-78
2023/06/12 02:39:54;;;;;;;6.82;5.80;;;14.60;99.90;;;;;;5013838;28;20038;-80
2023/06/12 02:42:23;;;;;;;7.45;5.88;;;14.70;99.90;;;;;;5014319;28;20046;-78
2023/06/12 02:44:49;;;;;;;9.20;7.38;;;14.50;99.90;;;;;;5019060;28;20033;-79
2023/06/12 02:47:15;;;;;;;7.25;5.78;;;14.40;99.90;;;;;;5002806;28;20084;-78
2023/06/12 02:49:44;;;;;;;7.10;6.07;;;14.40;99.90;;;;;;5010092;28;21957;-79
2023/06/12 02:52:12;;;;;;;7.82;7.03;;;14.40;99.90;;;;;;5015344;28;20026;-79
2023/06/12 02:54:38;;;;;;;6.90;6.20;;;14.30;99.90;;;;;;5010372;28;20045;-78
2023/06/12 02:57:04;;;;;;;7.93;6.15;;;14.30;99.90;;;;;;5011594;28;20030;-78
2023/06/12 02:59:33;;;;;;;7.72;6.50;;;14.20;99.90;;;;;;5015476;28;20058;-78
2023/06/12 03:02:02;;;;;;;7.25;6.45;;;14.10;99.90;;;;;;5016319;28;20092;-79
2023/06/12 03:04:32;;;;;;;8.90;6.22;;;14.10;99.90;;;;;;5017366;28;20030;-79
2023/06/12 03:07:05;;;;;;;7.03;6.32;;;14.10;99.90;;;;;;5017817;28;20026;-78
2023/06/12 03:09:33;;;;;;;10.27;6.88;;;14.10;99.90;;;;;;5017087;28;20084;-78
2023/06/12 03:12:02;;;;;;;8.10;6.30;;;14.10;99.90;;;;;;5014559;28;20061;-79
2023/06/12 03:14:27;;;;;;;7.80;6.45;;;14.00;99.90;;;;;;5014991;28;20049;-78
2023/06/12 03:16:54;;;;;;;10.02;6.57;;;14.10;99.90;;;;;;5015548;28;20038;-77
2023/06/12 03:19:19;;;;;;;7.47;6.55;;;14.10;99.90;;;;;;5017200;28;20100;-78
2023/06/12 03:21:45;;;;;;;7.57;6.20;;;14.10;99.90;;;;;;5015722;28;20033;-79
2023/06/12 03:24:13;;;;;;;8.05;6.70;;;14.00;99.90;;;;;;5014476;28;20039;-78
2023/06/12 03:26:41;;;;;;;7.70;6.45;;;14.00;99.90;;;;;;5012422;28;20042;-77
2023/06/12 03:29:07;;;;;;;7.95;6.80;;;13.90;99.90;;;;;;5015012;28;20037;-78
2023/06/12 03:31:33;;;;;;;7.20;6.50;;;14.00;99.90;;;;;;5000032;28;20050;-79
2023/06/12 03:34:01;;;;;;;9.50;6.43;;;13.90;99.90;;;;;;5014451;28;20098;-78
2023/06/12 03:36:33;;;;;;;8.05;6.40;;;13.90;99.90;;;;;;5014634;28;20037;-79
2023/06/12 03:39:00;;;;;;;12.68;6.82;;;13.90;99.90;;;;;;5014874;28;20042;-78
2023/06/12 03:41:33;;;;;;;9.43;6.75;;;13.90;99.90;;;;;;5018287;28;20065;-79
2023/06/12 03:43:59;;;;;;;10.38;6.85;;;14.00;99.90;;;;;;5013772;28;20120;-78
2023/06/12 03:46:25;;;;;;;8.15;6.90;;;14.00;99.90;;;;;;5013325;28;20030;-79
2023/06/12 03:48:53;;;;;;;7.72;6.25;;;13.90;99.90;;;;;;5008851;28;20053;-79
2023/06/12 03:51:19;;;;;;;8.65;6.22;;;13.80;99.90;;;;;;5016638;28;20029;-79
2023/06/12 03:53:45;;;;;;;9.55;6.60;;;13.70;99.90;;;;;;4992954;28;20050;-78
2023/06/12 03:56:11;;;;;;;9.80;7.85;;;13.60;99.90;;;;;;5014116;28;20057;-79
2023/06/12 03:58:37;;;;;;;11.23;6.88;;;13.50;99.90;;;;;;5021598;28;20033;-78
2023/06/12 04:01:05;;;;;;;8.55;6.75;;;13.60;99.90;;;;;;5008403;28;20053;-78
2023/06/12 04:03:30;;;;;;;10.60;7.47;;;13.70;99.90;;;;;;5011354;28;20038;-79
2023/06/12 04:05:56;;;;;;;10.80;7.20;;;13.80;99.90;;;;;;5012364;28;20109;-79
2023/06/12 04:08:22;;;;;;;8.85;7.10;;;13.90;99.90;;;;;;5009755;28;20049;-79
2023/06/12 04:10:47;;;;;;;8.05;6.93;;;14.00;99.90;;;;;;5009641;28;20026;-78
2023/06/12 04:13:13;;;;;;;9.18;7.20;;;14.00;99.90;;;;;;5017571;28;20169;-78
2023/06/12 04:15:39;;;;;;;8.77;7.38;;;14.00;99.90;;;;;;5014014;28;20065;-77
2023/06/12 04:18:09;;;;;;;8.05;6.85;;;14.00;99.90;;;;;;5006872;28;20065;-79
2023/06/12 04:20:35;;;;;;;8.38;7.20;;;14.00;99.90;;;;;;5013882;28;20489;-79
2023/06/12 04:23:04;;;;;;;9.57;7.40;;;14.00;99.90;;;;;;4999388;28;20030;-80
2023/06/12 04:25:33;;;;;;;10.40;7.65;;;14.00;99.90;;;;;;5013136;28;20056;-79
2023/06/12 04:27:59;;;;;;;9.25;7.30;;;14.10;99.90;;;;;;4999213;28;20037;-79
2023/06/12 04:30:25;;;;;;;8.95;7.10;;;14.20;99.90;;;;;;5013771;28;20034;-78
2023/06/12 04:32:53;;;;;;;10.27;8.13;;;14.20;99.90;;;;;;5008929;28;20040;-78
2023/06/12 04:35:19;;;;;;;10.15;7.78;;;14.20;99.90;;;;;;5010621;28;20043;-79
2023/06/12 04:37:48;;;;;;;10.35;7.78;;;14.20;99.90;;;;;;5015360;28;20053;-79
2023/06/12 04:40:14;;;;;;;9.73;8.10;;;14.20;99.90;;;;;;5013583;28;20046;-78
2023/06/12 04:42:43;;;;;;;9.05;7.22;;;14.30;99.90;;;;;;5004982;28;20037;-79
2023/06/12 04:45:12;;;;;;;8.93;7.70;;;14.30;99.90;;;;;;5011386;28;20176;-78
2023/06/12 04:47:42;;;;;;;9.80;7.13;;;14.40;99.90;;;;;;5014841;28;20044;-79
2023/06/12 04:50:09;;;;;;;11.40;7.70;;;14.40;99.90;;;;;;5017686;28;20040;-79
2023/06/12 04:52:35;;;;;;;10.10;8.35;;;14.50;99.90;;;;;;5019659;28;20132;-78
2023/06/12 04:55:01;;;;;;;11.55;8.00;;;14.60;99.90;;;;;;5015848;28;20058;-78
2023/06/12 04:57:27;;;;;;;10.38;8.10;;;14.60;99.90;;;;;;5018804;28;20481;-78
2023/06/12 04:59:53;;;;;;;11.77;8.27;;;14.70;99.90;;;;;;5016191;28;20049;-78
2023/06/12 05:02:19;;;;;;;11.27;8.07;;;14.80;99.90;;;;;;5016148;28;20141;-77
2023/06/12 05:04:45;;;;;;;10.18;8.15;;;15.00;99.90;;;;;;5023429;28;20022;-79
2023/06/12 05:07:16;;;;;;;10.73;8.13;;;15.10;99.90;;;;;;5019717;28;20113;-77
2023/06/12 05:09:43;;;;;;;10.95;8.75;;;15.30;99.90;;;;;;5023259;28;20034;-78
2023/06/12 05:12:10;;;;;;;12.00;8.50;;;15.30;99.90;;;;;;4999339;28;20488;-79
2023/06/12 05:14:43;;;;;;;9.88;8.27;;;15.40;99.90;;;;;;5020006;28;20069;-79
2023/06/12 05:17:09;;;;;;;10.15;8.00;;;15.50;99.90;;;;;;5015334;28;20069;-79
2023/06/12 05:20:36;;;;;;;10.23;7.78;;;15.60;99.90;;;;;;5013440;28;20034;-79
2023/06/12 05:22:55;;;;;;;9.57;8.35;;;15.80;99.90;;;;;;5015831;28;20472;-79
2023/06/12 05:25:21;;;;;;;9.60;7.70;;;16.00;99.90;;;;;;5006471;28;20041;-79
2023/06/12 05:27:50;;;;;;;11.60;8.30;;;16.10;99.90;;;;;;5002463;28;20144;-78
2023/06/12 05:30:16;;;;;;;9.80;8.45;;;16.20;99.90;;;;;;5014391;28;20151;-80
2023/06/12 05:32:45;;;;;;;9.77;8.20;;;16.30;99.90;;;;;;5008454;28;20041;-77
2023/06/12 05:35:13;;;;;;;10.30;8.63;;;16.40;99.90;;;;;;5020207;28;20061;-78
2023/06/12 05:37:39;;;;;;;9.95;7.88;;;16.50;99.90;;;;;;5022572;28;20672;-77
2023/06/12 05:40:08;;;;;;;9.65;8.02;;;16.70;99.90;;;;;;5022666;28;20109;-79
2023/06/12 05:42:37;;;;;;;11.55;8.52;;;16.90;99.90;;;;;;5026384;28;20493;-78
2023/06/12 05:45:04;;;;;;;9.95;7.90;;;17.00;99.90;;;;;;5020700;28;20065;-79
2023/06/12 05:47:33;;;;;;;10.05;8.13;;;17.20;99.90;;;;;;5004366;28;20034;-78
2023/06/12 05:50:13;;;;;;;8.90;7.97;;;17.30;99.90;;;;;;5002459;28;20038;-79
2023/06/12 05:52:42;;;;;;;12.18;7.60;;;17.40;99.90;;;;;;5003768;28;20200;-78
2023/06/12 05:55:08;;;;;;;9.40;8.20;;;17.60;99.90;;;;;;5019697;28;20101;-78
2023/06/12 05:57:34;;;;;;;9.50;7.88;;;17.60;99.90;;;;;;4994040;28;20033;-78
2023/06/12 06:00:05;;;;;;;10.57;8.25;;;17.60;99.90;;;;;;5017417;28;20032;-79
2023/06/12 06:02:34;;;;;;;8.95;7.30;;;17.70;99.90;;;;;;5036803;28;20045;-79
2023/06/12 06:05:00;;;;;;;7.47;6.75;;;17.80;99.90;;;;;;5041024;28;20069;-79
2023/06/12 06:07:26;;;;;;;8.38;6.95;;;17.90;99.90;;;;;;5040701;28;20029;-78
2023/06/12 06:09:52;;;;;;;9.27;8.23;;;18.00;99.90;;;;;;5021464;28;20040;-80
2023/06/12 06:12:21;;;;;;;11.23;7.97;;;18.20;99.90;;;;;;5042903;28;20056;-79
2023/06/12 06:14:50;;;;;;;13.40;8.13;;;18.10;99.90;;;;;;5037095;28;20117;-81
2023/06/12 06:17:17;;;;;;;14.68;7.38;;;18.10;99.90;;;;;;5024833;28;20097;-80
2023/06/12 06:19:42;;;;;;;10.55;8.18;;;18.10;99.90;;;;;;5038446;28;20556;-80
2023/06/12 06:22:08;;;;;;;9.02;7.55;;;18.20;99.90;;;;;;5040867;28;20088;-80
2023/06/12 06:24:37;;;;;;;9.30;7.55;;;18.40;99.90;;;;;;5040423;28;20021;-80
2023/06/12 06:27:07;;;;;;;10.05;7.78;;;18.40;99.90;;;;;;5042573;28;20068;-81
2023/06/12 06:29:33;;;;;;;7.75;6.53;;;18.40;99.90;;;;;;5040556;28;20040;-80
2023/06/12 06:31:58;;;;;;;9.13;7.05;;;18.60;99.90;;;;;;5043297;28;20041;-80
2023/06/12 06:34:25;;;;;;;8.80;7.05;;;18.70;99.90;;;;;;5043398;28;20025;-81
2023/06/12 06:36:51;;;;;;;8.30;7.50;;;18.70;99.90;;;;;;5041591;28;20038;-80
2023/06/12 06:39:17;;;;;;;9.25;7.20;;;18.80;99.90;;;;;;5044923;28;20094;-80
2023/06/12 06:41:43;;;;;;;9.20;7.50;;;18.80;99.90;;;;;;5036191;28;20037;-80
2023/06/12 06:44:12;;;;;;;8.23;6.88;;;18.80;99.90;;;;;;5040407;28;20065;-80
2023/06/12 06:46:37;;;;;;;8.68;7.10;;;18.80;99.90;;;;;;5043730;28;20049;-80
2023/06/12 06:49:03;;;;;;;7.70;6.90;;;18.80;99.90;;;;;;5038334;28;20662;-81
2023/06/12 06:51:32;;;;;;;6.80;6.07;;;18.90;99.90;;;;;;5034687;28;20049;-80
2023/06/12 06:53:58;;;;;;;7.97;7.15;;;19.00;99.90;;;;;;5036166;28;20080;-81
2023/06/12 06:56:23;;;;;;;8.85;6.80;;;19.20;99.90;;;;;;5031586;28;20033;-81
2023/06/12 06:58:49;;;;;;;8.98;6.72;;;19.30;99.90;;;;;;5038318;28;20044;-80
2023/06/12 07:01:17;;;;;;;8.20;6.18;;;19.20;99.90;;;;;;5038697;28;20079;-80
2023/06/12 07:03:42;;;;;;;8.82;7.40;;;19.30;99.90;;;;;;5021865;28;20085;-79
2023/06/12 07:06:09;;;;;;;9.43;7.72;;;19.40;99.90;;;;;;5037674;28;20064;-78
2023/06/12 07:08:35;;;;;;;7.13;6.43;;;19.30;99.90;;;;;;5043363;28;20032;-80
2023/06/12 07:11:03;;;;;;;9.00;7.10;;;19.30;99.90;;;;;;5040966;28;20022;-79
2023/06/12 07:13:35;;;;;;;8.50;7.15;;;19.30;99.90;;;;;;5042092;28;20060;-80
2023/06/12 07:16:04;;;;;;;7.95;6.53;;;19.30;99.90;;;;;;5036559;28;20029;-80
2023/06/12 07:18:29;;;;;;;9.35;7.05;;;19.30;99.90;;;;;;5038728;28;20025;-80
2023/06/12 07:20:55;;;;;;;8.50;6.60;;;19.50;99.90;;;;;;5033501;28;20053;-79
2023/06/12 07:23:21;;;;;;;7.25;6.25;;;19.60;99.90;;;;;;5039556;28;20055;-80
2023/06/12 07:25:46;;;;;;;7.85;6.55;;;19.50;99.90;;;;;;5040185;28;20504;-79
2023/06/12 07:28:12;;;;;;;7.15;6.03;;;19.70;99.90;;;;;;5044457;28;20033;-80
2023/06/12 07:30:38;;;;;;;6.95;6.22;;;19.70;99.90;;;;;;5040724;28;20034;-80
2023/06/12 07:33:07;;;;;;;8.60;6.45;;;19.90;99.90;;;;;;5042395;28;20079;-80
2023/06/12 07:35:32;;;;;;;8.88;7.20;;;20.00;99.90;;;;;;5036371;28;20037;-79
2023/06/12 07:37:58;;;;;;;7.97;6.90;;;20.00;99.90;;;;;;5033423;28;20085;-80
2023/06/12 07:40:24;;;;;;;7.47;6.65;;;20.00;99.90;;;;;;5034827;28;20033;-80
2023/06/12 07:42:49;;;;;;;7.82;7.07;;;20.10;99.90;;;;;;5035938;28;20481;-80
2023/06/12 07:45:15;;;;;;;8.55;7.35;;;20.20;99.90;;;;;;5039192;28;20029;-79
2023/06/12 07:47:42;;;;;;;8.63;7.40;;;20.30;99.90;;;;;;5041387;28;20029;-80
2023/06/12 07:50:08;;;;;;;8.53;7.23;;;20.20;99.90;;;;;;5043130;28;20032;-80
2023/06/12 07:52:34;;;;;;;7.07;6.35;;;20.20;99.90;;;;;;5038711;28;20095;-80
2023/06/12 07:55:00;;;;;;;7.88;6.85;;;20.30;99.90;;;;;;5031253;28;20042;-79
2023/06/12 07:57:25;;;;;;;7.63;6.10;;;20.30;99.90;;;;;;5042446;28;20048;-80
2023/06/12 07:59:51;;;;;;;7.18;6.20;;;20.60;99.90;;;;;;5041592;28;20029;-82
2023/06/12 08:02:17;;;;;;;6.28;5.68;;;20.40;99.90;;;;;;5022046;28;20053;-80
2023/06/12 08:04:44;;;;;;;8.52;6.25;;;20.30;99.90;;;;;;5017869;28;20095;-80
2023/06/12 08:07:12;;;;;;;6.32;5.72;;;20.40;99.90;;;;;;5040671;28;20037;-80
2023/06/12 08:09:39;;;;;;;;;;;20.60;99.90;;;;;;5038922;28;22076;-79
2023/06/12 08:12:05;;;;;;;5.40;4.90;;;20.70;99.90;;;;;;5041241;28;19910;-81
2023/06/12 08:14:31;;;;;;;6.63;5.85;;;20.80;99.90;;;;;;5042171;28;20040;-79
2023/06/12 08:16:58;;;;;;;8.05;5.90;;;20.90;99.90;;;;;;5021487;28;20611;-79
2023/06/12 08:19:24;;;;;;;6.83;5.53;;;21.00;99.90;;;;;;5038888;28;20029;-79
2023/06/12 08:21:50;;;;;;;6.13;4.85;;;21.00;99.90;;;;;;5031951;28;20300;-78
2023/06/12 08:24:16;;;;;;;8.13;5.15;;;20.80;99.90;;;;;;5040995;28;20126;-78
2023/06/12 08:26:41;;;;;;;6.55;5.13;;;20.70;99.90;;;;;;5026072;28;20032;-79
2023/06/12 08:29:08;;;;;;;7.57;5.03;;;21.00;99.90;;;;;;5042621;28;20034;-77
2023/06/12 08:31:34;;;;;;;9.15;5.50;;;21.00;99.90;;;;;;5039875;28;20081;-77
2023/06/12 08:34:00;;;;;;;5.72;5.20;;;21.10;99.90;;;;;;5039500;28;20034;-78
2023/06/12 08:36:26;;;;;;;6.38;5.72;;;20.60;99.90;;;;;;5039329;28;20029;-78
2023/06/12 08:38:52;;;;;;;7.50;5.10;;;20.50;99.90;;;;;;5045821;28;20044;-78
2023/06/12 08:41:19;;;;;;;6.53;5.22;;;20.90;99.90;;;;;;5046442;28;20032;-77
2023/06/12 08:43:47;;;;;;;7.95;5.15;;;20.90;99.90;;;;;;5046314;28;20037;-77
2023/06/12 08:46:16;;;;;;;6.00;5.18;;;21.10;99.90;;;;;;5045377;28;20029;-77
2023/06/12 08:48:43;;;;;;;5.25;4.25;;;21.20;99.90;;;;;;5041425;28;20040;-76
2023/06/12 08:51:09;;;;;;;5.78;4.65;;;21.20;99.90;;;;;;5021713;28;20058;-79
2023/06/12 08:53:35;;;;;;;7.13;5.07;;;21.20;99.90;;;;;;5028732;28;20519;-83
2023/06/12 08:56:01;;;;;;;6.07;4.68;;;21.00;99.90;;;;;;5037099;28;20033;-78
2023/06/12 08:58:27;;;;;;;7.07;4.97;;;21.10;99.90;;;;;;5045795;28;20033;-77
2023/06/12 09:00:57;;;;;;;4.72;4.22;;;21.40;99.90;;;;;;5035200;28;20049;-77
2023/06/12 09:03:22;;;;;;;13.38;5.45;;;21.60;99.90;;;;;;5038381;28;20030;-79
2023/06/12 09:05:52;;;;;;;11.98;4.97;;;21.40;99.90;;;;;;5037438;28;20064;-78
2023/06/12 09:08:18;;;;;;;5.45;4.95;;;21.20;99.90;;;;;;5021047;28;20089;-79
2023/06/12 09:10:45;;;;;;;7.95;4.68;;;21.20;99.90;;;;;;5041546;28;20053;-77
2023/06/12 09:13:10;;;;;;;8.32;4.97;;;21.40;99.90;;;;;;5036185;28;20098;-79
2023/06/12 09:16:01;;;;;;;4.88;4.38;;;21.60;99.90;;;;;;5039682;28;20135;-79
2023/06/12 09:18:27;;;;;;;8.45;4.60;;;21.70;99.90;;;;;;5020133;28;20025;-77
2023/06/12 09:20:52;;;;;;;5.38;4.43;;;22.10;99.90;;;;;;5044671;28;20041;-76
2023/06/12 09:23:19;;;;;;;4.40;4.03;;;22.00;99.90;;;;;;5036557;28;20041;-78
2023/06/12 09:25:45;;;;;;;4.50;4.10;;;21.60;99.90;;;;;;5026926;28;20029;-77
2023/06/12 09:28:10;;;;;;;4.93;4.28;;;21.30;99.90;;;;;;5037008;28;20071;-78
2023/06/12 09:30:41;;;;;;;4.90;4.50;;;21.70;99.90;;;;;;5036061;28;20033;-77
2023/06/12 09:33:10;;;;;;;4.50;4.10;;;22.00;99.90;;;;;;5043233;28;20041;-78
2023/06/12 09:35:56;;;;;;;5.80;4.30;;;22.40;99.90;;;;;;5022164;28;20408;-78
2023/06/12 09:38:32;;;;;;;4.72;4.22;;;22.90;99.90;;;;;;5042881;28;20041;-79
2023/06/12 09:40:59;;;;;;;5.18;4.38;;;22.70;99.90;;;;;;5039511;28;20060;-77
2023/06/12 09:43:26;;;;;;;7.05;4.35;;;22.30;99.90;;;;;;5038789;28;20066;-77
2023/06/12 09:45:53;;;;;;;6.22;4.90;;;22.50;99.90;;;;;;5043081;28;20152;-78
2023/06/12 09:48:18;;;;;;;4.82;4.18;;;22.50;99.90;;;;;;5039183;28;20040;-78
2023/06/12 09:50:46;;;;;;;5.82;4.72;;;22.30;99.90;;;;;;5040045;28;20029;-79
2023/06/12 09:53:16;;;;;;;5.82;3.92;;;22.40;99.90;;;;;;5023317;28;20380;-77
2023/06/12 09:55:44;;;;;;;5.65;4.63;;;22.50;99.90;;;;;;5037574;28;20034;-80
2023/06/12 09:58:13;;;;;;;5.32;4.07;;;22.70;99.90;;;;;;5035799;28;20056;-78
2023/06/12 10:00:39;;;;;;;5.40;4.28;;;22.60;99.90;;;;;;5042535;28;20056;-78
2023/06/12 10:03:11;;;;;;;6.00;4.25;;;22.70;99.90;;;;;;5045927;28;20098;-80
2023/06/12 10:05:42;;;;;;;5.63;4.15;;;22.60;99.90;;;;;;5042474;28;20377;-77
2023/06/12 10:08:08;;;;;;;5.07;4.40;;;22.40;99.90;;;;;;5040344;28;20044;-79
2023/06/12 10:10:37;;;;;;;6.45;4.03;;;22.40;99.90;;;;;;5035386;28;20029;-83
2023/06/12 10:13:04;;;;;;;6.82;4.00;;;22.40;99.90;;;;;;5040564;28;20060;-80
2023/06/12 10:15:31;;;;;;;4.40;3.85;;;22.80;99.90;;;;;;5037029;28;20037;-79
2023/06/12 10:17:58;;;;;;;7.30;4.00;;;23.20;99.90;;;;;;5021110;28;20034;-81
2023/06/12 10:20:24;;;;;;;4.53;4.10;;;23.10;99.90;;;;;;5041346;28;20038;-78
2023/06/12 10:22:54;;;;;;;6.13;3.90;;;23.30;99.90;;;;;;5041345;28;20034;-77
2023/06/12 10:25:20;;;;;;;4.55;4.10;;;23.40;99.90;;;;;;5036655;28;20469;-78
2023/06/12 10:27:47;;;;;;;4.50;4.10;;;23.30;99.90;;;;;;5037634;28;20035;-77
2023/06/12 10:30:17;;;;;;;4.32;3.75;;;23.00;99.90;;;;;;5036058;28;20062;-77
2023/06/12 10:32:45;;;;;;;4.10;3.70;;;23.00;99.90;;;;;;5040742;28;20101;-78
2023/06/12 10:35:11;;;;;;;4.20;3.33;;;23.10;99.90;;;;;;5036513;28;20477;-78
2023/06/12 10:37:46;;;;;;;5.55;4.40;;;23.20;99.90;;;;;;5043339;28;20063;-78
2023/06/12 10:40:13;;;;;;;4.40;4.00;;;23.20;99.90;;;;;;5040650;28;20025;-79
2023/06/12 10:42:55;;;;;;;4.50;3.75;;;23.30;99.90;;;;;;5041693;28;20033;-79
2023/06/12 10:45:25;;;;;;;4.25;3.85;;;23.40;99.90;;;;;;5041041;28;20034;-77
2023/06/12 10:48:06;;;;;;;5.43;3.80;;;23.40;99.90;;;;;;5038484;28;20034;-78
2023/06/12 10:50:43;;;;;;;4.63;3.95;;;23.40;99.90;;;;;;5035205;28;20065;-78
2023/06/12 10:53:14;;;;;;;5.03;4.00;;;23.20;99.90;;;;;;5041172;28;20041;-78
2023/06/12 10:55:43;;;;;;;5.05;3.53;;;23.40;99.90;;;;;;5034956;28;20033;-78
2023/06/12 10:58:18;;;;;;;5.07;3.70;;;23.40;99.90;;;;;;5040189;28;20060;-78
2023/06/12 11:00:46;;;;;;;5.10;3.47;;;23.60;99.90;;;;;;5042120;28;20033;-78
2023/06/12 11:03:17;;;;;;;4.50;3.55;;;23.50;99.90;;;;;;5037900;28;20041;-78
2023/06/12 11:05:48;;;;;;;4.30;3.90;;;23.50;99.90;;;;;;5035459;28;20033;-77
2023/06/12 11:08:14;;;;;;;4.55;4.15;;;23.70;99.90;;;;;;5038437;28;20049;-77
2023/06/12 11:10:40;;;;;;;5.43;4.50;;;23.80;99.90;;;;;;5038254;28;20432;-78
2023/06/12 11:13:05;;;;;;;5.63;4.30;;;23.40;99.90;;;;;;5039679;28;20033;-78
2023/06/12 11:15:42;;;;;;;4.20;3.65;;;23.40;99.90;;;;;;5039912;28;20148;-78
2023/06/12 11:18:09;;;;;;;4.47;3.70;;;23.40;99.90;;;;;;5037627;28;20037;-79
2023/06/12 11:20:35;;;;;;;5.45;4.07;;;23.40;99.90;;;;;;5032020;28;20037;-78
2023/06/12 11:23:01;;;;;;;5.60;4.00;;;23.70;99.90;;;;;;5031869;28;20053;-77
2023/06/12 11:25:31;;;;;;;4.32;3.92;;;23.50;99.90;;;;;;5036196;28;20029;-78
2023/06/12 11:27:57;;;;;;;4.80;4.30;;;23.50;99.90;;;;;;5034239;28;20065;-78
2023/06/12 11:30:24;;;;;;;5.93;3.80;;;23.60;99.90;;;;;;5020033;28;20095;-78
2023/06/12 11:32:50;;;;;;;5.32;3.70;;;23.70;99.90;;;;;;5035344;28;20114;-77
2023/06/12 11:35:16;;;;;;;4.55;3.85;;;23.40;99.90;;;;;;5042704;28;20038;-78
2023/06/12 11:37:42;;;;;;;4.53;4.10;;;23.70;99.90;;;;;;5026381;28;20033;-79
2023/06/12 11:40:11;;;;;;;6.93;4.00;;;23.60;99.90;;;;;;5029829;28;20034;-80
2023/06/12 11:42:44;;;;;;;7.75;4.50;;;23.30;99.90;;;;;;5034730;28;20038;-81
2023/06/12 11:45:14;;;;;;;4.72;3.85;;;23.20;99.90;;;;;;5034343;28;20030;-79
2023/06/12 11:47:45;;;;;;;4.50;3.92;;;23.10;99.90;;;;;;5038423;28;20029;-78
2023/06/12 11:50:13;;;;;;;4.57;4.03;;;23.10;99.90;;;;;;5036983;28;20099;-79
2023/06/12 11:52:40;;;;;;;4.55;4.15;;;23.40;99.90;;;;;;5038238;28;20068;-78
2023/06/12 11:55:08;;;;;;;6.28;4.10;;;23.70;99.90;;;;;;5041635;28;20033;-78
2023/06/12 11:57:35;;;;;;;5.53;3.75;;;23.60;99.90;;;;;;5034403;28;20072;-78
2023/06/12 12:00:12;;;;;;;9.40;4.45;;;23.70;99.90;;;;;;5024947;28;20033;-77
2023/06/12 12:02:41;;;;;;;4.63;3.90;;;23.70;99.90;;;;;;5021875;28;20754;-79
2023/06/12 12:05:11;;;;;;;6.82;4.03;;;23.70;99.90;;;;;;5040447;28;20765;-78
2023/06/12 12:07:39;;;;;;;4.07;3.67;;;23.70;99.90;;;;;;5037450;28;20161;-78
2023/06/12 12:10:06;;;;;;;;;;;23.50;99.90;;;;;;5036543;28;20377;-79
2023/06/12 12:12:42;;;;;;;;;;;23.70;99.90;;;;;;5041926;28;19984;-78
2023/06/12 12:15:10;;;;;;;10.05;3.80;;;23.70;99.90;;;;;;5038917;28;19920;-79
2023/06/12 12:17:38;;;;;;;5.55;3.70;;;23.60;99.90;;;;;;5036105;28;20079;-78
2023/06/12 12:20:07;;;;;;;5.32;3.83;;;23.60;99.90;;;;;;5034993;28;20037;-78
2023/06/12 12:22:37;;;;;;;4.25;3.67;;;23.80;99.90;;;;;;5034420;28;20045;-79
2023/06/12 12:25:03;;;;;;;4.72;3.95;;;23.70;99.90;;;;;;5040556;28;20042;-78
2023/06/12 12:27:29;;;;;;;6.45;4.20;;;23.70;99.90;;;;;;5039795;28;20038;-78
2023/06/12 12:29:55;;;;;;;5.47;3.63;;;23.90;99.90;;;;;;5039780;28;20089;-77
2023/06/12 12:32:21;;;;;;;4.18;3.40;;;24.00;99.90;;;;;;5042110;28;20045;-77
2023/06/12 12:34:47;;;;;;;9.40;3.92;;;24.20;99.90;;;;;;5039430;28;20047;-77
2023/06/12 12:37:13;;;;;;;3.90;3.60;;;24.10;99.90;;;;;;5038671;28;20053;-78
2023/06/12 12:39:38;;;;;;;4.32;3.92;;;24.10;99.90;;;;;;5042574;28;20080;-78
2023/06/12 12:42:04;;;;;;;5.82;4.13;;;24.30;99.90;;;;;;5041512;28;20017;-78
2023/06/12 12:44:30;;;;;;;4.63;3.97;;;24.40;99.90;;;;;;5023939;28;20387;-79
2023/06/12 12:46:56;;;;;;;7.90;4.30;;;24.40;99.90;;;;;;5043822;28;20033;-78
2023/06/12 12:49:21;;;;;;;4.43;4.03;;;24.20;99.90;;;;;;5044882;28;20032;-78